Pacific, Missouri
Current Conditions -  °F | °C
As of 2:06 AM on Monday 24 Nov 2014 (Local Time) from KSUS Reporting Station
Light Rain Light Rain  
Wind Chill: 40°   Ceiling: 1500
Heat Index: 46°   Visibility: 10mi
Dew Point: 43°   Wind: 16mph
Humidity: 87%   Direction: 290°WNW
Pressure: 29.26"   Gusts: 30mph
Location:  38.48°N, 90.74°W
Report Text: KSUS 240806Z AUTO 29014G26KT 10SM -RA BKN015 BKN060 OVC075 08/06 A2926 RMK AO2 PK WND 29026/0802 P0001
Loading
Personal Weather Stations






























Interactive Weather Map New forecast layout! Learn more

10-Day Weather Forecast

Advertisements
Track Severe Weather on mobile